Time;durP1;ratioP1;P1;durP2;ratioP2;P2;SDS_P1;SDS_P2;PMS_P1;PMS_P2;Temp;Humidity;BMP_temperature;BMP_pressure;BME280_temperature;BME280_humidity;BME280_pressure;Samples;Min_cycle;Max_cycle;Signal;HPM_P1;HPM_P2
2021/03/07 00:00:08;;;;;;;10.90;5.63;;;;;;;;;;5043443;28;38751;-76
2021/03/07 00:02:34;;;;;;;7.45;5.38;;;;;;;;;;5030502;28;48777;-75
2021/03/07 00:05:00;;;;;;;10.23;6.60;;;;;;;;;;5058323;28;39758;-75
2021/03/07 00:07:27;;;;;;;10.20;6.23;;;;;;;;;;5045637;27;39631;-77
2021/03/07 00:09:53;;;;;;;12.50;6.37;;;;;;;;;;5035269;28;38407;-76
2021/03/07 00:12:20;;;;;;;10.87;6.83;;;;;;;;;;5051790;28;37883;-75
2021/03/07 00:14:46;;;;;;;14.07;6.90;;;;;;;;;;5022346;28;38425;-75
2021/03/07 00:17:12;;;;;;;13.63;6.60;;;;;;;;;;5034151;28;39993;-75
2021/03/07 00:19:39;;;;;;;11.43;7.03;;;;;;;;;;5036415;28;39386;-74
2021/03/07 00:22:05;;;;;;;15.93;6.63;;;;;;;;;;5051485;27;37430;-73
2021/03/07 00:24:31;;;;;;;11.50;7.00;;;;;;;;;;5051274;27;39337;-74
2021/03/07 00:26:58;;;;;;;11.87;6.60;;;;;;;;;;5042920;28;38922;-75
2021/03/07 00:29:24;;;;;;;12.63;6.80;;;;;;;;;;5039108;28;38442;-75
2021/03/07 00:31:51;;;;;;;15.20;6.80;;;;;;;;;;5024277;28;38369;-76
2021/03/07 00:34:17;;;;;;;14.80;8.40;;;;;;;;;;5019171;28;39726;-75
2021/03/07 00:36:43;;;;;;;9.77;6.20;;;;;;;;;;5019870;28;38181;-75
2021/03/07 00:39:10;;;;;;;21.93;8.00;;;;;;;;;;5019653;28;39652;-77
2021/03/07 00:41:36;;;;;;;15.57;7.93;;;;;;;;;;5016099;28;37733;-75
2021/03/07 00:44:05;;;;;;;12.20;7.03;;;;;;;;;;5056433;28;39448;-76
2021/03/07 00:46:31;;;;;;;13.97;8.53;;;;;;;;;;5017372;28;38955;-74
2021/03/07 00:48:58;;;;;;;19.47;8.50;;;;;;;;;;5011830;28;36977;-75
2021/03/07 00:51:24;;;;;;;26.80;9.37;;;;;;;;;;5041037;28;35958;-74
2021/03/07 00:53:51;;;;;;;14.10;8.60;;;;;;;;;;5020350;28;38631;-74
2021/03/07 00:56:17;;;;;;;17.20;8.43;;;;;;;;;;5011620;28;39665;-74
2021/03/07 00:58:44;;;;;;;12.23;6.67;;;;;;;;;;5016271;28;39187;-75
2021/03/07 01:01:10;;;;;;;12.70;7.13;;;;;;;;;;5013566;28;38521;-76
2021/03/07 01:03:37;;;;;;;16.83;8.50;;;;;;;;;;5018360;28;39765;-75
2021/03/07 01:06:03;;;;;;;16.97;8.63;;;;;;;;;;5019877;28;38803;-75
2021/03/07 01:08:30;;;;;;;15.83;9.37;;;;;;;;;;5020158;28;38414;-75
2021/03/07 01:10:56;;;;;;;15.97;7.90;;;;;;;;;;5048810;28;37491;-75
2021/03/07 01:13:22;;;;;;;19.77;9.00;;;;;;;;;;5010835;28;39150;-74
2021/03/07 01:15:49;;;;;;;19.27;9.17;;;;;;;;;;5018075;28;38513;-75
2021/03/07 01:18:15;;;;;;;16.63;9.40;;;;;;;;;;5015766;28;37914;-74
2021/03/07 01:20:42;;;;;;;19.07;8.90;;;;;;;;;;5047475;28;35340;-75
2021/03/07 01:23:09;;;;;;;14.60;7.87;;;;;;;;;;5050752;28;38730;-76
2021/03/07 01:25:35;;;;;;;16.30;9.30;;;;;;;;;;5012649;28;38282;-75
2021/03/07 01:28:03;;;;;;;18.10;9.53;;;;;;;;;;5042465;28;39954;-75
2021/03/07 01:30:31;;;;;;;13.60;8.20;;;;;;;;;;5022190;28;38050;-75
2021/03/07 01:32:57;;;;;;;16.33;10.63;;;;;;;;;;5016835;28;38811;-74
2021/03/07 01:35:24;;;;;;;16.67;10.17;;;;;;;;;;5047214;28;37882;-75
2021/03/07 01:37:50;;;;;;;19.27;9.87;;;;;;;;;;5009320;28;39809;-75
2021/03/07 01:40:19;;;;;;;20.70;10.37;;;;;;;;;;5015452;28;37389;-74
2021/03/07 01:42:56;;;;;;;15.83;9.67;;;;;;;;;;5016438;28;40032;-75
2021/03/07 01:45:23;;;;;;;19.57;10.30;;;;;;;;;;5020407;28;38918;-75
2021/03/07 01:47:51;;;;;;;15.50;8.27;;;;;;;;;;5022806;28;38529;-74
2021/03/07 01:50:19;;;;;;;20.57;10.37;;;;;;;;;;5038821;28;37578;-75
2021/03/07 01:52:46;;;;;;;16.37;9.50;;;;;;;;;;5040256;28;39248;-74
2021/03/07 01:55:13;;;;;;;16.70;10.13;;;;;;;;;;5037988;28;38784;-75
2021/03/07 01:57:39;;;;;;;20.37;10.67;;;;;;;;;;5054582;27;39064;-74
2021/03/07 02:00:08;;;;;;;18.70;9.87;;;;;;;;;;5039284;27;37244;-75
2021/03/07 02:02:35;;;;;;;22.23;11.07;;;;;;;;;;5034821;27;38851;-75
2021/03/07 02:05:04;;;;;;;18.20;8.87;;;;;;;;;;5036074;28;38761;-75
2021/03/07 02:07:31;;;;;;;17.80;10.13;;;;;;;;;;5010224;28;48665;-74
2021/03/07 02:09:57;;;;;;;15.73;9.70;;;;;;;;;;5013021;28;36808;-74
2021/03/07 02:12:24;;;;;;;21.00;11.00;;;;;;;;;;5014000;28;40140;-74
2021/03/07 02:14:51;;;;;;;14.43;10.40;;;;;;;;;;5021198;28;38953;-74
2021/03/07 02:17:19;;;;;;;15.60;10.97;;;;;;;;;;5013523;28;38659;-74
2021/03/07 02:19:45;;;;;;;22.73;11.50;;;;;;;;;;5016320;28;38981;-75
2021/03/07 02:22:14;;;;;;;20.20;11.20;;;;;;;;;;5013139;28;39496;-77
2021/03/07 02:24:40;;;;;;;23.27;11.13;;;;;;;;;;5015525;28;38496;-75
2021/03/07 02:27:07;;;;;;;20.33;11.10;;;;;;;;;;5007542;28;38981;-75
2021/03/07 02:29:33;;;;;;;16.77;10.67;;;;;;;;;;5033575;28;38909;-75
2021/03/07 02:32:09;;;;;;;14.97;9.87;;;;;;;;;;5024187;28;39539;-74
2021/03/07 02:34:36;;;;;;;17.57;10.90;;;;;;;;;;5040206;27;47414;-74
2021/03/07 02:37:06;;;;;;;17.60;11.63;;;;;;;;;;5047399;27;39934;-75
2021/03/07 02:39:34;;;;;;;16.60;10.63;;;;;;;;;;5036208;28;35374;-78
2021/03/07 02:42:03;;;;;;;20.30;12.67;;;;;;;;;;5041965;27;38207;-76
2021/03/07 02:44:31;;;;;;;23.63;12.57;;;;;;;;;;5024928;28;48347;-80
2021/03/07 02:46:59;;;;;;;19.07;11.83;;;;;;;;;;5016611;28;39058;-75
2021/03/07 02:49:28;;;;;;;17.80;12.47;;;;;;;;;;5018549;28;37900;-77
2021/03/07 02:51:56;;;;;;;22.77;12.63;;;;;;;;;;5022026;28;40157;-75
2021/03/07 02:54:23;;;;;;;20.30;12.17;;;;;;;;;;5022898;28;38389;-76
2021/03/07 02:56:54;;;;;;;29.03;12.73;;;;;;;;;;5031653;28;37775;-75
2021/03/07 02:59:22;;;;;;;20.40;11.47;;;;;;;;;;5027636;28;38906;-75
2021/03/07 03:01:53;;;;;;;20.57;11.60;;;;;;;;;;5051201;28;40742;-74
2021/03/07 03:04:19;;;;;;;19.03;10.67;;;;;;;;;;5054196;28;39088;-80
2021/03/07 03:06:47;;;;;;;17.27;11.93;;;;;;;;;;5049911;27;39217;-78
2021/03/07 03:09:13;;;;;;;21.80;11.63;;;;;;;;;;5018781;27;37016;-76
2021/03/07 03:11:41;;;;;;;21.57;11.40;;;;;;;;;;5032667;28;38470;-75
2021/03/07 03:14:08;;;;;;;17.10;10.90;;;;;;;;;;5026293;27;38715;-75
2021/03/07 03:16:35;;;;;;;21.20;12.13;;;;;;;;;;5013184;28;37955;-75
2021/03/07 03:19:05;;;;;;;23.00;12.93;;;;;;;;;;5017124;28;37485;-76
2021/03/07 03:21:32;;;;;;;22.90;13.30;;;;;;;;;;5038030;28;47420;-74
2021/03/07 03:23:59;;;;;;;25.23;13.90;;;;;;;;;;5018738;28;38485;-75
2021/03/07 03:26:26;;;;;;;20.13;12.47;;;;;;;;;;5018709;28;37387;-78
2021/03/07 03:28:54;;;;;;;17.33;11.43;;;;;;;;;;5017746;28;36503;-75
2021/03/07 03:31:21;;;;;;;16.07;10.53;;;;;;;;;;5023257;28;38930;-74
2021/03/07 03:33:47;;;;;;;14.67;8.50;;;;;;;;;;5037622;28;38559;-75
2021/03/07 03:36:14;;;;;;;22.53;13.00;;;;;;;;;;5039425;28;40233;-76
2021/03/07 03:38:41;;;;;;;25.77;13.90;;;;;;;;;;5049274;27;37357;-75
2021/03/07 03:41:09;;;;;;;21.17;13.33;;;;;;;;;;5053701;28;37822;-74
2021/03/07 03:43:36;;;;;;;24.87;13.07;;;;;;;;;;5048266;28;39986;-74
2021/03/07 03:46:04;;;;;;;19.77;12.43;;;;;;;;;;5028040;28;37154;-75
2021/03/07 03:48:33;;;;;;;21.03;12.20;;;;;;;;;;5033882;28;38601;-75
2021/03/07 03:51:00;;;;;;;19.90;12.83;;;;;;;;;;5035803;28;40896;-77
2021/03/07 03:53:26;;;;;;;16.97;10.17;;;;;;;;;;5038832;27;39211;-74
2021/03/07 03:55:53;;;;;;;21.23;12.03;;;;;;;;;;5049856;27;39855;-75
2021/03/07 03:58:24;;;;;;;21.90;13.33;;;;;;;;;;5034041;28;38193;-75
2021/03/07 04:00:52;;;;;;;18.70;12.27;;;;;;;;;;5037168;28;37973;-77
2021/03/07 04:03:20;;;;;;;22.20;12.83;;;;;;;;;;5033324;28;39128;-75
2021/03/07 04:05:47;;;;;;;24.20;15.13;;;;;;;;;;5021261;28;38272;-75
2021/03/07 04:08:15;;;;;;;23.23;14.07;;;;;;;;;;5023499;28;38709;-74
2021/03/07 04:10:42;;;;;;;21.87;12.30;;;;;;;;;;5016377;28;39931;-75
2021/03/07 04:13:09;;;;;;;21.03;11.60;;;;;;;;;;5021950;28;39035;-79
2021/03/07 04:15:37;;;;;;;20.83;12.20;;;;;;;;;;5028185;28;38507;-75
2021/03/07 04:18:03;;;;;;;17.37;11.07;;;;;;;;;;5052485;27;37621;-75
2021/03/07 04:20:30;;;;;;;21.10;12.27;;;;;;;;;;5047529;28;40800;-77
2021/03/07 04:22:56;;;;;;;20.73;13.13;;;;;;;;;;5036559;28;39818;-76
2021/03/07 04:25:23;;;;;;;21.83;12.53;;;;;;;;;;5035498;28;38599;-75
2021/03/07 04:27:49;;;;;;;21.33;14.17;;;;;;;;;;5043436;28;37754;-77
2021/03/07 04:30:16;;;;;;;21.57;12.80;;;;;;;;;;5035520;28;38333;-74
2021/03/07 04:32:43;;;;;;;22.83;13.80;;;;;;;;;;5040280;28;37728;-75
2021/03/07 04:35:10;;;;;;;16.67;11.37;;;;;;;;;;5043097;27;37064;-74
2021/03/07 04:37:36;;;;;;;17.47;10.53;;;;;;;;;;5020993;28;37727;-74
2021/03/07 04:40:03;;;;;;;23.17;13.80;;;;;;;;;;5013986;28;38832;-76
2021/03/07 04:42:30;;;;;;;19.40;10.73;;;;;;;;;;5015504;28;38787;-77
2021/03/07 04:44:56;;;;;;;14.00;10.13;;;;;;;;;;5011948;28;38335;-75
2021/03/07 04:47:22;;;;;;;19.33;12.57;;;;;;;;;;5013414;28;38544;-75
2021/03/07 04:49:49;;;;;;;19.90;11.80;;;;;;;;;;5029949;28;39184;-75
2021/03/07 04:52:15;;;;;;;14.83;9.10;;;;;;;;;;5013207;28;37964;-78
2021/03/07 04:54:42;;;;;;;12.57;8.27;;;;;;;;;;5013879;28;39208;-75
2021/03/07 04:57:08;;;;;;;9.43;6.43;;;;;;;;;;5015982;28;36784;-75
2021/03/07 04:59:34;;;;;;;13.47;8.53;;;;;;;;;;5012831;28;38749;-76
2021/03/07 05:02:01;;;;;;;15.47;10.43;;;;;;;;;;5036273;28;39704;-75
2021/03/07 05:04:27;;;;;;;16.33;9.43;;;;;;;;;;5029552;28;47604;-75
2021/03/07 05:06:54;;;;;;;20.57;11.73;;;;;;;;;;5027475;28;35625;-75
2021/03/07 05:09:20;;;;;;;19.13;12.37;;;;;;;;;;5027422;27;39086;-76
2021/03/07 05:11:46;;;;;;;14.63;10.47;;;;;;;;;;5052775;27;38628;-74
2021/03/07 05:14:13;;;;;;;15.40;11.60;;;;;;;;;;5051213;27;38662;-77
2021/03/07 05:16:39;;;;;;;18.00;11.47;;;;;;;;;;5035718;28;36802;-76
2021/03/07 05:19:06;;;;;;;21.10;13.63;;;;;;;;;;5051393;27;39792;-76
2021/03/07 05:21:32;;;;;;;26.50;14.77;;;;;;;;;;5038038;28;39016;-75
2021/03/07 05:24:00;;;;;;;25.07;15.53;;;;;;;;;;5020186;28;39754;-77
2021/03/07 05:26:27;;;;;;;19.90;12.73;;;;;;;;;;5020957;28;39547;-77
2021/03/07 05:28:54;;;;;;;17.03;12.60;;;;;;;;;;5033640;28;38234;-76
2021/03/07 05:31:20;;;;;;;23.40;14.07;;;;;;;;;;5037978;28;37235;-75
2021/03/07 05:33:47;;;;;;;16.50;12.33;;;;;;;;;;5017794;28;39299;-79
2021/03/07 05:36:13;;;;;;;21.20;14.13;;;;;;;;;;5022412;28;36829;-78
2021/03/07 05:38:40;;;;;;;20.70;11.93;;;;;;;;;;5034035;28;39609;-76
2021/03/07 05:41:06;;;;;;;18.37;11.33;;;;;;;;;;5018443;28;37809;-75
2021/03/07 05:43:33;;;;;;;27.00;14.43;;;;;;;;;;5015011;28;38918;-75
2021/03/07 05:45:59;;;;;;;28.60;15.40;;;;;;;;;;5026933;28;34680;-77
2021/03/07 05:48:29;;;;;;;17.37;12.63;;;;;;;;;;5016892;28;39295;-75
2021/03/07 05:50:56;;;;;;;16.60;13.20;;;;;;;;;;5014153;28;39272;-76
2021/03/07 05:53:22;;;;;;;19.87;13.73;;;;;;;;;;5012403;28;38467;-76
2021/03/07 05:55:49;;;;;;;14.63;8.73;;;;;;;;;;5007831;28;35791;-74
2021/03/07 05:58:17;;;;;;;15.43;8.63;;;;;;;;;;5031086;28;39378;-75
2021/03/07 06:00:43;;;;;;;15.60;9.33;;;;;;;;;;5017723;28;38512;-75
2021/03/07 06:03:10;;;;;;;11.50;9.23;;;;;;;;;;5034192;28;39025;-75
2021/03/07 06:05:36;;;;;;;15.37;9.13;;;;;;;;;;5025520;28;37866;-75
2021/03/07 06:08:03;;;;;;;15.13;8.97;;;;;;;;;;5011152;28;38850;-75
2021/03/07 06:10:30;;;;;;;14.00;9.50;;;;;;;;;;5030511;28;39141;-75
2021/03/07 06:13:05;;;;;;;13.63;8.80;;;;;;;;;;5025133;28;39887;-76
2021/03/07 06:15:31;;;;;;;16.53;9.63;;;;;;;;;;5008532;28;47414;-76
2021/03/07 06:17:58;;;;;;;15.20;8.93;;;;;;;;;;5025497;28;39239;-76
2021/03/07 06:20:26;;;;;;;13.83;8.67;;;;;;;;;;5046564;27;37412;-76
2021/03/07 06:22:59;;;;;;;11.63;8.00;;;;;;;;;;5045271;27;37491;-76
2021/03/07 06:25:27;;;;;;;11.10;7.43;;;;;;;;;;5045662;27;35942;-75
2021/03/07 06:27:54;;;;;;;10.20;7.53;;;;;;;;;;5033806;28;39946;-77
2021/03/07 06:30:23;;;;;;;10.77;7.83;;;;;;;;;;5052026;28;39012;-76
2021/03/07 06:32:51;;;;;;;11.10;7.27;;;;;;;;;;5034293;28;38564;-75
2021/03/07 06:35:24;;;;;;;10.83;7.27;;;;;;;;;;5012941;28;38093;-75
2021/03/07 06:37:51;;;;;;;10.45;7.93;;;;;;;;;;5014519;28;38998;-75
2021/03/07 06:40:28;;;;;;;10.37;8.00;;;;;;;;;;5014263;28;38762;-75
2021/03/07 06:42:55;;;;;;;11.20;7.77;;;;;;;;;;5010203;28;38683;-76
2021/03/07 06:45:21;;;;;;;14.00;9.03;;;;;;;;;;5015971;27;37211;-77
2021/03/07 06:47:55;;;;;;;13.30;8.93;;;;;;;;;;5016646;28;39649;-75
2021/03/07 06:50:22;;;;;;;8.90;7.20;;;;;;;;;;5017959;28;39315;-75
2021/03/07 06:52:58;;;;;;;10.90;8.77;;;;;;;;;;5015946;28;39003;-75
2021/03/07 06:55:26;;;;;;;8.73;6.90;;;;;;;;;;5019507;28;37118;-76
2021/03/07 06:57:53;;;;;;;10.37;6.10;;;;;;;;;;5025766;28;39155;-75
2021/03/07 07:00:36;;;;;;;8.53;6.73;;;;;;;;;;5012629;28;40101;-76
2021/03/07 07:03:06;;;;;;;7.30;5.65;;;;;;;;;;5016434;28;38247;-76
2021/03/07 07:05:34;;;;;;;7.43;6.17;;;;;;;;;;5038220;28;37058;-77
2021/03/07 07:08:00;;;;;;;8.73;6.60;;;;;;;;;;5010879;28;38843;-76
2021/03/07 07:10:26;;;;;;;10.37;6.47;;;;;;;;;;5041714;28;47936;-74
2021/03/07 07:13:02;;;;;;;8.17;6.60;;;;;;;;;;5051408;27;38191;-75
2021/03/07 07:15:29;;;;;;;8.10;6.03;;;;;;;;;;5036858;28;47294;-74
2021/03/07 07:17:55;;;;;;;8.87;6.70;;;;;;;;;;5042983;28;40278;-77
2021/03/07 07:20:22;;;;;;;10.07;7.77;;;;;;;;;;5031755;28;37374;-76
2021/03/07 07:22:48;;;;;;;11.93;7.20;;;;;;;;;;5046998;27;39387;-75
2021/03/07 07:25:15;;;;;;;10.20;7.20;;;;;;;;;;5031668;28;36603;-76
2021/03/07 07:27:41;;;;;;;11.03;7.77;;;;;;;;;;5047462;27;39336;-75
2021/03/07 07:30:08;;;;;;;13.23;7.70;;;;;;;;;;5031503;27;39003;-75
2021/03/07 07:32:45;;;;;;;9.57;7.23;;;;;;;;;;5045462;27;37135;-76
2021/03/07 07:35:25;;;;;;;9.17;6.67;;;;;;;;;;5029441;27;37000;-75
2021/03/07 07:37:56;;;;;;;9.00;7.73;;;;;;;;;;5037100;27;38557;-77
2021/03/07 07:40:33;;;;;;;9.83;7.70;;;;;;;;;;5045373;27;37343;-76
2021/03/07 07:43:00;;;;;;;7.13;6.40;;;;;;;;;;5046466;27;38825;-76
2021/03/07 07:45:27;;;;;;;8.73;7.30;;;;;;;;;;5044347;27;37258;-76
2021/03/07 07:47:56;;;;;;;8.60;7.10;;;;;;;;;;5038967;27;39185;-76
2021/03/07 07:50:28;;;;;;;9.63;7.33;;;;;;;;;;5037068;28;38445;-77
2021/03/07 07:52:55;;;;;;;;;;;;;;;;;;5040749;28;38303;-75
2021/03/07 07:55:40;;;;;;;9.27;6.27;;;;;;;;;;5051067;27;35908;-76
2021/03/07 07:58:07;;;;;;;9.67;6.83;;;;;;;;;;5065062;27;38041;-73
2021/03/07 08:00:47;;;;;;;10.97;7.37;;;;;;;;;;5051007;27;37178;-75
2021/03/07 08:03:32;;;;;;;9.40;7.10;;;;;;;;;;5040635;27;39262;-74
2021/03/07 08:06:00;;;;;;;7.87;6.67;;;;;;;;;;5048332;27;36392;-79
2021/03/07 08:08:30;;;;;;;9.63;6.43;;;;;;;;;;5034589;28;38772;-74
2021/03/07 08:10:57;;;;;;;8.77;6.80;;;;;;;;;;5061712;27;39713;-78
2021/03/07 08:13:29;;;;;;;9.70;7.10;;;;;;;;;;5037444;28;38788;-78
2021/03/07 08:15:56;;;;;;;8.88;6.78;;;;;;;;;;5023119;28;37271;-77
2021/03/07 08:18:23;;;;;;;8.83;7.13;;;;;;;;;;5041511;28;39984;-75
2021/03/07 08:20:53;;;;;;;12.27;8.07;;;;;;;;;;5031416;28;38658;-75
2021/03/07 08:23:23;;;;;;;10.20;7.60;;;;;;;;;;5021839;28;37802;-75
2021/03/07 08:25:52;;;;;;;10.10;7.97;;;;;;;;;;5017701;28;40079;-75
2021/03/07 08:28:31;;;;;;;8.60;7.30;;;;;;;;;;5037947;28;39022;-75
2021/03/07 08:31:07;;;;;;;10.67;7.07;;;;;;;;;;5019190;28;41346;-75
2021/03/07 08:33:41;;;;;;;11.67;7.70;;;;;;;;;;5021710;28;47091;-75
2021/03/07 08:36:18;;;;;;;8.80;7.57;;;;;;;;;;5016559;28;36728;-76
2021/03/07 08:38:54;;;;;;;10.83;7.83;;;;;;;;;;5014727;28;39432;-77
2021/03/07 08:41:46;;;;;;;8.87;7.27;;;;;;;;;;5028280;28;39230;-76
2021/03/07 08:44:16;;;;;;;10.37;7.80;;;;;;;;;;5024224;28;39835;-76
2021/03/07 08:46:42;;;;;;;9.80;7.87;;;;;;;;;;5036275;28;37276;-76
2021/03/07 08:49:19;;;;;;;9.60;7.67;;;;;;;;;;5017874;28;39048;-76
2021/03/07 08:51:50;;;;;;;9.73;7.97;;;;;;;;;;5020174;28;39507;-75
2021/03/07 08:54:20;;;;;;;8.73;7.67;;;;;;;;;;5022454;28;39299;-77
2021/03/07 08:56:47;;;;;;;9.37;8.23;;;;;;;;;;5012650;28;37659;-75
2021/03/07 08:59:13;;;;;;;11.77;8.70;;;;;;;;;;5031920;28;38876;-78
2021/03/07 09:01:40;;;;;;;10.97;8.63;;;;;;;;;;5032199;28;47254;-75
2021/03/07 09:04:07;;;;;;;13.50;8.57;;;;;;;;;;5022945;28;37325;-76
2021/03/07 09:06:35;;;;;;;9.77;7.70;;;;;;;;;;5019970;28;35589;-75
2021/03/07 09:09:03;;;;;;;10.07;7.50;;;;;;;;;;5022097;28;39493;-76
2021/03/07 09:11:29;;;;;;;8.93;7.47;;;;;;;;;;5033201;28;49062;-76
2021/03/07 09:13:55;;;;;;;9.57;8.20;;;;;;;;;;5024453;28;38136;-77
2021/03/07 09:16:22;;;;;;;12.37;7.83;;;;;;;;;;5035002;28;37561;-73
2021/03/07 09:18:48;;;;;;;11.43;8.40;;;;;;;;;;5036992;28;38871;-77
2021/03/07 09:21:16;;;;;;;10.17;7.90;;;;;;;;;;5045476;27;38459;-75
2021/03/07 09:23:42;;;;;;;10.43;7.93;;;;;;;;;;5040095;28;38954;-76
2021/03/07 09:26:10;;;;;;;12.87;8.93;;;;;;;;;;5034556;28;38286;-76
2021/03/07 09:28:38;;;;;;;9.73;7.87;;;;;;;;;;5030653;28;39486;-76
2021/03/07 09:31:06;;;;;;;10.30;7.63;;;;;;;;;;5020609;28;38598;-75
2021/03/07 09:33:32;;;;;;;8.37;7.43;;;;;;;;;;5018434;28;38458;-75
2021/03/07 09:36:00;;;;;;;10.60;7.40;;;;;;;;;;5023045;28;37887;-75
2021/03/07 09:38:37;;;;;;;8.87;6.97;;;;;;;;;;5017182;28;39039;-76
2021/03/07 09:41:04;;;;;;;9.60;6.90;;;;;;;;;;5028713;28;39978;-76
2021/03/07 09:43:30;;;;;;;8.97;7.10;;;;;;;;;;5019604;28;39284;-76
2021/03/07 09:45:57;;;;;;;7.77;6.63;;;;;;;;;;5018204;28;38623;-74
2021/03/07 09:48:28;;;;;;;10.23;7.17;;;;;;;;;;5019817;28;39703;-77
2021/03/07 09:50:55;;;;;;;8.05;6.90;;;;;;;;;;5021032;28;38800;-76
2021/03/07 09:53:22;;;;;;;8.27;7.07;;;;;;;;;;5015001;28;38482;-75
2021/03/07 09:55:49;;;;;;;9.47;7.47;;;;;;;;;;5020111;28;37753;-81
2021/03/07 09:58:15;;;;;;;9.90;7.90;;;;;;;;;;5019154;28;39104;-78
2021/03/07 10:00:47;;;;;;;8.77;7.27;;;;;;;;;;5034195;28;38263;-79
2021/03/07 10:03:26;;;;;;;8.25;6.68;;;;;;;;;;5035589;28;37806;-77
2021/03/07 10:06:12;;;;;;;10.57;7.33;;;;;;;;;;5055049;27;38702;-79
2021/03/07 10:08:40;;;;;;;8.47;7.30;;;;;;;;;;5028641;28;47252;-79
2021/03/07 10:11:14;;;;;;;8.37;7.20;;;;;;;;;;5018049;28;38065;-80
2021/03/07 10:13:41;;;;;;;9.50;7.18;;;;;;;;;;5025916;28;39045;-79
2021/03/07 10:16:08;;;;;;;9.27;7.53;;;;;;;;;;5026465;28;35837;-79
2021/03/07 10:18:35;;;;;;;9.98;6.97;;;;;;;;;;5026024;28;40058;-79
2021/03/07 10:21:01;;;;;;;8.27;6.97;;;;;;;;;;5023613;28;38276;-80
2021/03/07 10:23:29;;;;;;;7.97;6.87;;;;;;;;;;5037416;28;47201;-81
2021/03/07 10:25:55;;;;;;;8.40;6.67;;;;;;;;;;5059509;28;37256;-79
2021/03/07 10:28:26;;;;;;;9.87;7.47;;;;;;;;;;5075057;27;39301;-80
2021/03/07 10:30:53;;;;;;;9.47;7.63;;;;;;;;;;5012652;28;39568;-79
2021/03/07 10:33:25;;;;;;;11.93;7.63;;;;;;;;;;5011767;28;39203;-79
2021/03/07 10:35:51;;;;;;;;;;;;;;;;;;5031537;28;37451;-80
2021/03/07 10:38:18;;;;;;;9.77;6.17;;;;;;;;;;5026304;28;38793;-78
2021/03/07 10:40:45;;;;;;;9.07;5.97;;;;;;;;;;5008766;28;40633;-82
2021/03/07 10:43:11;;;;;;;6.67;5.73;;;;;;;;;;5026849;28;38630;-79
2021/03/07 10:45:40;;;;;;;6.57;4.93;;;;;;;;;;5024921;28;37045;-81
2021/03/07 10:48:08;;;;;;;6.63;4.07;;;;;;;;;;5036597;28;38239;-81
2021/03/07 10:50:35;;;;;;;6.67;4.70;;;;;;;;;;5048103;28;38601;-81
2021/03/07 10:53:02;;;;;;;9.67;3.80;;;;;;;;;;5045981;28;38211;-80
2021/03/07 10:55:28;;;;;;;5.70;4.00;;;;;;;;;;5036483;27;35145;-79
2021/03/07 10:57:54;;;;;;;5.10;3.77;;;;;;;;;;5059290;27;39861;-79
2021/03/07 11:00:23;;;;;;;5.57;4.53;;;;;;;;;;5046702;28;39241;-82
2021/03/07 11:02:49;;;;;;;8.40;4.63;;;;;;;;;;5048538;27;40199;-77
2021/03/07 11:05:16;;;;;;;7.67;4.67;;;;;;;;;;5026342;28;37733;-79
2021/03/07 11:07:43;;;;;;;4.97;4.23;;;;;;;;;;5022130;28;39550;-77
2021/03/07 11:10:11;;;;;;;6.60;4.00;;;;;;;;;;5042054;28;39052;-80
2021/03/07 11:12:37;;;;;;;5.23;4.03;;;;;;;;;;5025816;28;38504;-78
2021/03/07 11:15:05;;;;;;;6.37;4.80;;;;;;;;;;5022701;28;38567;-76
2021/03/07 11:17:31;;;;;;;10.43;4.50;;;;;;;;;;5044878;28;39673;-76
2021/03/07 11:19:57;;;;;;;6.80;5.10;;;;;;;;;;5054553;28;40118;-81
2021/03/07 11:22:24;;;;;;;7.43;5.30;;;;;;;;;;5051493;28;38489;-78
2021/03/07 11:24:50;;;;;;;7.90;5.13;;;;;;;;;;5032334;28;37507;-78
2021/03/07 11:27:17;;;;;;;9.23;5.73;;;;;;;;;;5043779;28;39039;-78
2021/03/07 11:29:43;;;;;;;8.00;5.40;;;;;;;;;;5044282;28;40089;-78
2021/03/07 11:32:10;;;;;;;5.90;4.97;;;;;;;;;;5042974;28;37993;-80
2021/03/07 11:34:36;;;;;;;8.10;6.00;;;;;;;;;;5049709;28;36940;-79
2021/03/07 11:37:03;;;;;;;9.13;5.50;;;;;;;;;;5048755;28;37839;-77
2021/03/07 11:39:30;;;;;;;11.57;5.53;;;;;;;;;;5045760;28;39582;-77
2021/03/07 11:41:56;;;;;;;8.07;6.13;;;;;;;;;;5034851;28;38986;-78
2021/03/07 11:44:23;;;;;;;8.57;6.10;;;;;;;;;;5042086;28;35851;-82
2021/03/07 11:46:51;;;;;;;9.37;5.77;;;;;;;;;;5052067;27;39337;-77
2021/03/07 11:49:18;;;;;;;9.00;6.63;;;;;;;;;;5045235;28;39960;-80
2021/03/07 11:51:45;;;;;;;7.80;6.40;;;;;;;;;;5037335;28;38441;-80
2021/03/07 11:54:11;;;;;;;9.70;5.77;;;;;;;;;;5040558;28;37863;-77
2021/03/07 11:56:38;;;;;;;6.60;5.70;;;;;;;;;;5054314;28;40732;-80
2021/03/07 11:59:04;;;;;;;8.30;5.50;;;;;;;;;;5053660;28;38500;-80
2021/03/07 12:01:31;;;;;;;10.50;5.80;;;;;;;;;;5048807;28;38132;-79
2021/03/07 12:03:58;;;;;;;8.83;5.30;;;;;;;;;;5045103;28;38278;-79
2021/03/07 12:06:24;;;;;;;11.07;6.37;;;;;;;;;;5055825;27;39877;-81
2021/03/07 12:08:51;;;;;;;6.53;5.43;;;;;;;;;;5059526;28;39243;-78
2021/03/07 12:11:18;;;;;;;10.43;5.60;;;;;;;;;;5040289;28;37975;-80
2021/03/07 12:13:45;;;;;;;7.67;5.17;;;;;;;;;;5034981;28;37680;-75
2021/03/07 12:16:11;;;;;;;7.37;4.90;;;;;;;;;;5042430;28;39770;-79
2021/03/07 12:18:38;;;;;;;6.17;4.97;;;;;;;;;;5032361;28;38571;-77
2021/03/07 12:21:06;;;;;;;6.20;4.83;;;;;;;;;;5029489;28;39380;-80
2021/03/07 12:23:32;;;;;;;9.03;4.70;;;;;;;;;;5053560;28;37038;-80
2021/03/07 12:25:59;;;;;;;6.70;4.63;;;;;;;;;;5048948;28;39483;-78
2021/03/07 12:28:25;;;;;;;5.17;4.10;;;;;;;;;;5044573;28;39015;-78
2021/03/07 12:30:52;;;;;;;7.17;4.67;;;;;;;;;;5042258;28;39249;-78
2021/03/07 12:33:18;;;;;;;6.27;3.87;;;;;;;;;;5043542;28;36412;-81
2021/03/07 12:35:44;;;;;;;7.00;4.87;;;;;;;;;;5048178;28;39728;-80
2021/03/07 12:38:11;;;;;;;7.93;4.37;;;;;;;;;;5042873;28;37920;-77
2021/03/07 12:40:37;;;;;;;7.10;4.03;;;;;;;;;;5034054;28;38071;-81
2021/03/07 12:43:04;;;;;;;5.70;4.47;;;;;;;;;;5036653;28;37637;-77
2021/03/07 12:45:30;;;;;;;7.00;4.00;;;;;;;;;;5047449;27;38220;-78
2021/03/07 12:47:56;;;;;;;6.40;4.00;;;;;;;;;;5042891;28;37751;-80
2021/03/07 12:50:23;;;;;;;5.90;3.30;;;;;;;;;;5068459;27;37108;-79
2021/03/07 12:52:49;;;;;;;7.33;4.10;;;;;;;;;;5047546;27;37160;-77
2021/03/07 12:55:15;;;;;;;6.57;4.00;;;;;;;;;;5042159;28;38590;-77
2021/03/07 12:57:42;;;;;;;5.27;3.57;;;;;;;;;;5026510;28;38128;-76
2021/03/07 13:00:08;;;;;;;3.80;3.10;;;;;;;;;;5067715;27;37399;-75
2021/03/07 13:02:35;;;;;;;2.90;1.40;;;;;;;;;;5040754;28;37681;-75
2021/03/07 13:05:01;;;;;;;2.90;1.23;;;;;;;;;;5040790;28;40245;-75
2021/03/07 13:07:28;;;;;;;4.17;1.10;;;;;;;;;;5043846;28;38633;-75
2021/03/07 13:09:54;;;;;;;2.93;1.50;;;;;;;;;;5043830;28;38456;-76
2021/03/07 13:12:21;;;;;;;5.87;1.53;;;;;;;;;;5072054;27;36926;-78
2021/03/07 13:14:47;;;;;;;2.77;1.47;;;;;;;;;;5042779;28;38983;-76
2021/03/07 13:17:13;;;;;;;3.70;1.60;;;;;;;;;;5041960;28;39243;-79
2021/03/07 13:19:40;;;;;;;1.87;1.27;;;;;;;;;;5059204;27;39117;-76
2021/03/07 13:22:06;;;;;;;2.97;0.87;;;;;;;;;;5035600;28;37056;-79
2021/03/07 13:24:33;;;;;;;1.33;0.90;;;;;;;;;;5029283;28;38038;-78
2021/03/07 13:26:59;;;;;;;2.83;0.77;;;;;;;;;;5023662;28;39231;-81
2021/03/07 13:29:25;;;;;;;4.33;1.47;;;;;;;;;;5038456;28;39508;-78
2021/03/07 13:31:52;;;;;;;1.53;0.77;;;;;;;;;;5022522;28;37183;-75
2021/03/07 13:34:18;;;;;;;1.43;0.80;;;;;;;;;;5034979;28;40442;-75
2021/03/07 13:36:44;;;;;;;3.57;0.97;;;;;;;;;;5043828;28;38541;-75
2021/03/07 13:39:11;;;;;;;3.43;0.90;;;;;;;;;;5040243;28;37988;-75
2021/03/07 13:41:37;;;;;;;3.27;0.70;;;;;;;;;;5054053;28;38651;-76
2021/03/07 13:44:04;;;;;;;1.53;0.70;;;;;;;;;;5042956;28;40020;-75
2021/03/07 13:46:30;;;;;;;1.73;0.80;;;;;;;;;;5061880;28;40068;-77
2021/03/07 13:48:57;;;;;;;3.23;0.87;;;;;;;;;;5024056;28;38224;-78
2021/03/07 13:51:23;;;;;;;1.10;0.57;;;;;;;;;;5051156;28;36968;-77
2021/03/07 13:53:50;;;;;;;1.73;0.90;;;;;;;;;;5052483;28;39314;-76
2021/03/07 13:56:17;;;;;;;2.27;0.93;;;;;;;;;;5053350;28;40862;-76
2021/03/07 13:58:43;;;;;;;2.47;0.70;;;;;;;;;;5019890;28;38383;-76
2021/03/07 14:01:10;;;;;;;0.87;0.57;;;;;;;;;;5014642;28;35980;-77
2021/03/07 14:03:36;;;;;;;2.00;0.80;;;;;;;;;;5017600;28;38621;-77
2021/03/07 14:06:02;;;;;;;3.50;0.70;;;;;;;;;;5033027;28;38620;-75
2021/03/07 14:08:29;;;;;;;1.73;0.80;;;;;;;;;;5038278;28;40439;-75
2021/03/07 14:10:55;;;;;;;1.90;0.80;;;;;;;;;;5037735;28;38005;-76
2021/03/07 14:13:21;;;;;;;2.47;0.70;;;;;;;;;;5052761;27;39231;-78
2021/03/07 14:15:48;;;;;;;3.77;0.90;;;;;;;;;;5049782;28;40193;-78
2021/03/07 14:18:14;;;;;;;2.27;1.00;;;;;;;;;;5023632;28;36101;-77
2021/03/07 14:20:41;;;;;;;3.70;0.80;;;;;;;;;;5033173;28;37049;-77
2021/03/07 14:23:07;;;;;;;1.70;1.17;;;;;;;;;;5022135;28;40038;-76
2021/03/07 14:25:33;;;;;;;2.23;1.47;;;;;;;;;;5014551;28;38719;-76
2021/03/07 14:28:00;;;;;;;3.37;1.73;;;;;;;;;;5011692;28;41158;-76
2021/03/07 14:30:26;;;;;;;1.77;1.10;;;;;;;;;;5020790;28;37955;-76
2021/03/07 14:32:53;;;;;;;1.67;1.17;;;;;;;;;;5016595;28;40468;-76
2021/03/07 14:35:20;;;;;;;1.57;1.10;;;;;;;;;;5012257;28;39025;-78